La Ronge Airport


Codes: CYVC/YVC
Name: La Ronge Airport
City: La Ronge
Country: Canada
Elevation: 1242 ft.
Wikipedia:

Photos at La Ronge Airport


   Photos courtesy of SpottingLog. You can add your own sightings and photos by signing up for a free trial today.



No photos found.

Weather at La Ronge Airport


Time (UTC)DescriptionTempratureWindCloud coverageVisibilityPressureHumidity
21-Feb-2024 03:00Scattered Clouds-11°C2 mph, E40%5060m1012hPa73%
21-Feb-2024 06:00Broken Clouds-12°C2 mph, SE56%6195m1013hPa82%
21-Feb-2024 09:00Broken Clouds-14°C2 mph, SE79%5562m1014hPa91%
21-Feb-2024 12:00Overcast Clouds-15°C2 mph, SW99%3673m1014hPa99%
21-Feb-2024 15:00Overcast Clouds-13°C4 mph, SW99%10000m1012hPa96%
21-Feb-2024 18:00Overcast Clouds-5°C4 mph, W90%10000m1010hPa87%
21-Feb-2024 21:00Overcast Clouds-1°C9 mph, W99%10000m1007hPa84%
22-Feb-2024 00:00Overcast Clouds-1°C9 mph, SW100%10000m1006hPa89%
22-Feb-2024 03:00Overcast Clouds-1°C11 mph, W100%10000m1005hPa86%
22-Feb-2024 06:00Overcast Clouds-2°C11 mph, W93%10000m1006hPa89%
22-Feb-2024 09:00Overcast Clouds-4°C9 mph, NW100%10000m1008hPa94%
22-Feb-2024 12:00Overcast Clouds-10°C7 mph, NE91%10000m1013hPa92%
22-Feb-2024 15:00Few Clouds-15°C7 mph, NE24%10000m1017hPa92%
22-Feb-2024 18:00Scattered Clouds-13°C9 mph, E44%10000m1018hPa81%
22-Feb-2024 21:00Overcast Clouds-12°C7 mph, E100%10000m1018hPa76%
23-Feb-2024 00:00Overcast Clouds-12°C9 mph, E100%10000m1017hPa85%
23-Feb-2024 03:00Light Snow-13°C11 mph, E100%188m1017hPa95%
23-Feb-2024 06:00Light Snow-13°C9 mph, SE100%825m1017hPa94%
23-Feb-2024 09:00Light Snow-14°C9 mph, SE98%3452m1017hPa96%
23-Feb-2024 12:00Overcast Clouds-15°C9 mph, SE96%3422m1017hPa95%
23-Feb-2024 15:00Overcast Clouds-13°C9 mph, SE98%2649m1015hPa94%
23-Feb-2024 18:00Overcast Clouds-7°C11 mph, S99%10000m1010hPa88%
23-Feb-2024 21:00Overcast Clouds-2°C11 mph, S100%10000m1005hPa86%
24-Feb-2024 00:00Overcast Clouds-0°C9 mph, SW94%10000m1001hPa88%
24-Feb-2024 03:00Broken Clouds1°C13 mph, W77%10000m999hPa80%
24-Feb-2024 06:00Broken Clouds-0°C11 mph, W75%10000m997hPa83%
24-Feb-2024 09:00Scattered Clouds-1°C16 mph, W38%9673m997hPa88%
24-Feb-2024 12:00Light Snow-4°C11 mph, W48%10000m997hPa80%
24-Feb-2024 15:00Broken Clouds-3°C20 mph, W52%9820m996hPa77%
24-Feb-2024 18:00Light Snow-9°C18 mph, NW70%10000m1002hPa77%
24-Feb-2024 21:00Overcast Clouds-9°C18 mph, NW100%10000m1003hPa78%
25-Feb-2024 00:00Overcast Clouds-11°C16 mph, NW100%10000m1005hPa82%
25-Feb-2024 03:00Overcast Clouds-13°C11 mph, NW100%10000m1008hPa85%
25-Feb-2024 06:00Overcast Clouds-17°C7 mph, NW87%10000m1009hPa93%
25-Feb-2024 09:00Clear Sky-20°C4 mph, NW10%10000m1011hPa98%
25-Feb-2024 12:00Clear Sky-23°C4 mph, NW9%10000m1012hPa98%
25-Feb-2024 15:00Scattered Clouds-23°C2 mph, N42%10000m1013hPa94%
25-Feb-2024 18:00Scattered Clouds-18°C4 mph, E49%10000m1012hPa81%
25-Feb-2024 21:00Overcast Clouds-17°C4 mph, E100%10000m1011hPa78%
26-Feb-2024 00:00Overcast Clouds-17°C4 mph, E100%10000m1010hPa83%